createdAt,value
2017-11-16T00:02:20.288Z,101822.77
2017-11-16T00:04:47.667Z,101822.88
2017-11-16T00:07:15.183Z,101822.81
2017-11-16T00:09:42.628Z,101822.19
2017-11-16T00:12:10.032Z,101829.92
2017-11-16T00:14:37.443Z,101823.98
2017-11-16T00:17:04.849Z,101835.84
2017-11-16T00:19:32.239Z,101829.58
2017-11-16T00:21:59.657Z,101830.71
2017-11-16T00:24:27.040Z,101829.38
2017-11-16T00:26:54.530Z,101824.55
2017-11-16T00:29:21.983Z,101825.06
2017-11-16T00:31:49.434Z,101827.72
2017-11-16T00:34:16.837Z,101823.58
2017-11-16T00:36:44.234Z,101826.87
2017-11-16T00:39:11.637Z,101826.97
2017-11-16T00:41:39.027Z,101829.28
2017-11-16T00:44:06.512Z,101825.16
2017-11-16T00:46:33.980Z,101826.07
2017-11-16T00:49:01.383Z,101828.84
2017-11-16T00:51:28.775Z,101824.98
2017-11-16T00:53:56.170Z,101825.11
2017-11-16T00:56:23.566Z,101828.99
2017-11-16T00:58:50.967Z,101827.85
2017-11-16T01:01:18.410Z,101820.73
2017-11-16T01:03:45.867Z,101827.38
2017-11-16T01:06:13.324Z,101813.50
2017-11-16T01:08:40.723Z,101813.66
2017-11-16T01:11:08.236Z,101811.57
2017-11-16T01:13:35.634Z,101815.94
2017-11-16T01:16:03.044Z,101813.84
2017-11-16T01:18:30.503Z,101811.34
2017-11-16T01:20:57.960Z,101803.22
2017-11-16T01:23:25.353Z,101797.59
2017-11-16T01:25:52.776Z,101807.41
2017-11-16T01:28:20.171Z,101807.96
2017-11-16T01:30:47.568Z,101799.78
2017-11-16T01:33:14.972Z,101805.81
2017-11-16T01:35:42.373Z,101797.03
2017-11-16T01:38:09.843Z,101791.84
2017-11-16T01:40:37.231Z,101785.32
2017-11-16T01:43:04.651Z,101789.29
2017-11-16T01:45:32.051Z,101784.48
2017-11-16T01:47:59.470Z,101786.39
2017-11-16T01:50:26.871Z,101792.15
2017-11-16T01:52:54.375Z,101792.04
2017-11-16T01:55:21.782Z,101785.86
2017-11-16T01:57:49.171Z,101783.20
2017-11-16T02:00:16.579Z,101777.19
2017-11-16T02:02:43.995Z,101775.97
2017-11-16T02:05:11.397Z,101773.95
2017-11-16T02:07:38.796Z,101774.86
2017-11-16T02:10:06.195Z,101776.05
2017-11-16T02:12:33.624Z,101771.41
2017-11-16T02:15:01.079Z,101765.75
2017-11-16T02:17:28.475Z,101761.67
2017-11-16T02:19:55.913Z,101756.23
2017-11-16T02:22:23.345Z,101763.11
2017-11-16T02:24:50.806Z,101764.95
2017-11-16T02:27:18.212Z,101767.22
2017-11-16T02:29:45.608Z,101765.11
2017-11-16T02:32:13.002Z,101756.11
2017-11-16T02:34:40.440Z,101753.67
2017-11-16T02:37:07.889Z,101752.75
2017-11-16T02:39:35.284Z,101747.30
2017-11-16T02:42:02.786Z,101747.59
2017-11-16T02:44:30.189Z,101745.78
2017-11-16T02:46:57.583Z,101748.99
2017-11-16T02:49:24.979Z,101741.59
2017-11-16T02:51:52.410Z,101733.23
2017-11-16T02:54:19.799Z,101734.55
2017-11-16T02:56:47.223Z,101733.66
2017-11-16T02:59:14.611Z,101722.42
2017-11-16T03:01:42.036Z,101726.11
2017-11-16T03:04:09.492Z,101729.23
2017-11-16T03:06:36.948Z,101725.20
2017-11-16T03:09:04.401Z,101720.13
2017-11-16T03:11:31.806Z,101725.98
2017-11-16T03:13:59.202Z,101727.23
2017-11-16T03:16:26.678Z,101723.17
2017-11-16T03:18:54.067Z,101728.41
2017-11-16T03:21:21.472Z,101723.27
2017-11-16T03:23:48.953Z,101738.00
2017-11-16T03:26:16.390Z,101736.95
2017-11-16T03:28:43.846Z,101730.91
2017-11-16T03:31:11.309Z,101725.81
2017-11-16T03:33:38.763Z,101726.09
2017-11-16T03:36:06.163Z,101726.33
2017-11-16T03:38:33.572Z,101730.45
2017-11-16T03:41:01.029Z,101728.76
2017-11-16T03:43:28.424Z,101727.54
2017-11-16T03:45:55.846Z,101735.94
2017-11-16T03:48:23.240Z,101737.05
2017-11-16T03:50:50.664Z,101730.29
2017-11-16T03:53:18.115Z,101726.23
2017-11-16T03:55:45.519Z,101732.36
2017-11-16T03:58:12.920Z,101725.95
2017-11-16T04:00:40.319Z,101719.58
2017-11-16T04:03:07.741Z,101728.09
2017-11-16T04:05:35.150Z,101730.06
2017-11-16T04:08:02.551Z,101736.25
2017-11-16T04:10:30.008Z,101746.72
2017-11-16T04:15:30.413Z,101742.25
2017-11-16T04:17:57.803Z,101737.11
2017-11-16T04:20:25.207Z,101737.91
2017-11-16T04:22:52.715Z,101734.38
2017-11-16T04:25:20.122Z,101733.31
2017-11-16T04:27:55.351Z,101727.61
2017-11-16T04:30:22.751Z,101727.20
2017-11-16T04:32:50.148Z,101724.41
2017-11-16T04:35:17.543Z,101717.95
2017-11-16T04:37:44.945Z,101713.55
2017-11-16T04:40:12.340Z,101715.47
2017-11-16T04:42:39.735Z,101711.08
2017-11-16T04:45:07.208Z,101713.69
2017-11-16T04:47:34.620Z,101709.38
2017-11-16T04:50:02.115Z,101713.02
2017-11-16T04:52:29.582Z,101709.14
2017-11-16T04:54:57.103Z,101703.92
2017-11-16T04:57:24.493Z,101701.79
2017-11-16T04:59:51.888Z,101703.41
2017-11-16T05:02:19.300Z,101704.30
2017-11-16T05:04:46.751Z,101698.72
2017-11-16T05:07:14.166Z,101690.94
2017-11-16T05:09:41.550Z,101694.30
2017-11-16T05:12:09.027Z,101693.69
2017-11-16T05:14:36.484Z,101690.39
2017-11-16T05:17:03.892Z,101689.27
2017-11-16T05:19:31.301Z,101685.61
2017-11-16T05:21:58.692Z,101688.27
2017-11-16T05:24:26.096Z,101686.36
2017-11-16T05:26:53.488Z,101688.49
2017-11-16T05:29:20.888Z,101689.95
2017-11-16T05:31:48.381Z,101688.25
2017-11-16T05:34:15.784Z,101691.78
2017-11-16T05:36:43.182Z,101690.95
2017-11-16T05:39:10.632Z,101692.98
2017-11-16T05:41:38.100Z,101698.92
2017-11-16T05:44:05.549Z,101697.17
2017-11-16T05:46:33.004Z,101695.61
2017-11-16T05:49:00.404Z,101700.75
2017-11-16T05:51:27.804Z,101701.03
2017-11-16T05:53:55.204Z,101706.98
2017-11-16T05:56:22.595Z,101706.97
2017-11-16T05:58:50.091Z,101701.80
2017-11-16T06:01:17.492Z,101699.73
2017-11-16T06:03:44.896Z,101698.59
2017-11-16T06:06:12.309Z,101698.50
2017-11-16T06:08:39.812Z,101702.78
2017-11-16T06:11:07.197Z,101699.48
2017-11-16T06:13:34.633Z,101694.45
2017-11-16T06:16:02.048Z,101693.97
2017-11-16T06:18:29.428Z,101694.91
2017-11-16T06:20:56.828Z,101694.55
2017-11-16T06:23:24.221Z,101695.62
2017-11-16T06:25:51.653Z,101689.97
2017-11-16T06:28:19.039Z,101687.75
2017-11-16T06:30:46.442Z,101682.05
2017-11-16T06:33:13.866Z,101694.55
2017-11-16T06:35:41.260Z,101699.20
2017-11-16T06:38:08.675Z,101700.61
2017-11-16T06:40:36.136Z,101703.56
2017-11-16T06:43:03.519Z,101700.52
2017-11-16T06:45:30.928Z,101707.17
2017-11-16T06:47:58.391Z,101699.81
2017-11-16T06:50:25.808Z,101698.48
2017-11-16T06:52:53.304Z,101701.59
2017-11-16T06:55:20.783Z,101696.31
2017-11-16T06:57:48.172Z,101704.30
2017-11-16T07:00:15.572Z,101710.56
2017-11-16T07:02:42.956Z,101717.78
2017-11-16T07:05:10.356Z,101713.55
2017-11-16T07:07:37.844Z,101716.98
2017-11-16T07:10:05.248Z,101719.86
2017-11-16T07:12:32.650Z,101719.00
2017-11-16T07:15:00.044Z,101724.09
2017-11-16T07:17:27.443Z,101720.56
2017-11-16T07:19:54.928Z,101720.23
2017-11-16T07:22:22.323Z,101715.23
2017-11-16T07:24:49.735Z,101707.03
2017-11-16T07:27:17.120Z,101710.65
2017-11-16T07:29:44.519Z,101707.85
2017-11-16T07:32:11.919Z,101712.06
2017-11-16T07:34:39.325Z,101706.95
2017-11-16T07:37:06.711Z,101702.22
2017-11-16T07:39:34.107Z,101704.95
2017-11-16T07:42:01.504Z,101705.42
2017-11-16T07:44:28.979Z,101705.38
2017-11-16T07:46:56.371Z,101708.39
2017-11-16T07:49:23.776Z,101697.28
2017-11-16T07:51:51.164Z,101698.59
2017-11-16T07:54:18.565Z,101693.39
2017-11-16T07:56:45.981Z,101697.41
2017-11-16T07:59:13.382Z,101701.05
2017-11-16T08:01:40.879Z,101693.18
2017-11-16T08:04:08.290Z,101695.71
2017-11-16T08:06:35.775Z,101692.84
2017-11-16T08:09:03.179Z,101687.80
2017-11-16T08:11:30.583Z,101686.89
2017-11-16T08:13:58.049Z,101688.65
2017-11-16T08:16:25.507Z,101691.41
2017-11-16T08:18:52.890Z,101688.25
2017-11-16T08:21:20.294Z,101689.20
2017-11-16T08:23:47.688Z,101693.08
2017-11-16T08:26:15.092Z,101688.65
2017-11-16T08:28:42.484Z,101697.93
2017-11-16T08:31:09.894Z,101695.53
2017-11-16T08:33:37.400Z,101694.82
2017-11-16T08:36:04.803Z,101690.67
2017-11-16T08:38:32.205Z,101697.32
2017-11-16T08:40:59.612Z,101695.28
2017-11-16T08:43:27.004Z,101693.41
2017-11-16T08:45:54.404Z,101691.19
2017-11-16T08:48:21.830Z,101691.80
2017-11-16T08:50:49.220Z,101687.89
2017-11-16T08:53:16.641Z,101691.00
2017-11-16T08:55:44.031Z,101690.47
2017-11-16T08:58:11.428Z,101694.53
2017-11-16T09:00:38.908Z,101691.21
2017-11-16T09:03:06.304Z,101689.20
2017-11-16T09:05:33.713Z,101700.14
2017-11-16T09:08:01.099Z,101700.06
2017-11-16T09:10:28.503Z,101700.75
2017-11-16T09:12:55.980Z,101709.53
2017-11-16T09:15:23.398Z,101710.69
2017-11-16T09:17:50.791Z,101707.69
2017-11-16T09:20:18.215Z,101707.11
2017-11-16T09:22:45.600Z,101705.63
2017-11-16T09:25:13.041Z,101711.16
2017-11-16T09:27:40.429Z,101714.61
2017-11-16T09:30:07.838Z,101706.73
2017-11-16T09:32:35.324Z,101707.86
2017-11-16T09:35:02.737Z,101702.83
2017-11-16T09:37:30.132Z,101711.58
2017-11-16T09:39:57.529Z,101707.38
2017-11-16T09:42:24.944Z,101704.72
2017-11-16T09:44:52.339Z,101703.19
2017-11-16T09:47:19.760Z,101709.53
2017-11-16T09:49:47.155Z,101707.42
2017-11-16T09:52:14.556Z,101696.95
2017-11-16T09:54:41.948Z,101702.09
2017-11-16T09:57:09.379Z,101697.85
2017-11-16T09:59:36.776Z,101692.30
2017-11-16T10:02:04.176Z,101686.79
2017-11-16T10:04:31.572Z,101677.64
2017-11-16T10:06:58.977Z,101677.23
2017-11-16T10:09:26.388Z,101679.91
2017-11-16T10:11:53.776Z,101676.69
2017-11-16T10:14:21.174Z,101675.31
2017-11-16T10:16:48.575Z,101668.27
2017-11-16T10:19:15.976Z,101676.59
2017-11-16T10:21:43.386Z,101668.00
2017-11-16T10:24:10.788Z,101665.59
2017-11-16T10:26:38.189Z,101665.06
2017-11-16T10:29:05.580Z,101660.07
2017-11-16T10:31:33.000Z,101658.82
2017-11-16T10:34:00.412Z,101652.97
2017-11-16T10:36:27.807Z,101661.95
2017-11-16T10:38:55.204Z,101652.98
2017-11-16T10:41:22.616Z,101650.18
2017-11-16T10:43:50.012Z,101651.09
2017-11-16T10:46:17.487Z,101651.34
2017-11-16T10:48:44.902Z,101654.22
2017-11-16T10:51:12.296Z,101647.09
2017-11-16T10:53:39.696Z,101643.31
2017-11-16T10:56:07.092Z,101643.33
2017-11-16T10:58:34.492Z,101637.45
2017-11-16T11:01:01.888Z,101642.42
2017-11-16T11:03:29.300Z,101634.96
2017-11-16T11:05:56.692Z,101635.86
2017-11-16T11:08:24.087Z,101631.45
2017-11-16T11:10:51.499Z,101625.70
2017-11-16T11:13:18.952Z,101631.47
2017-11-16T11:15:46.456Z,101623.95
2017-11-16T11:18:13.876Z,101621.44
2017-11-16T11:20:41.270Z,101616.09
2017-11-16T11:23:08.703Z,101619.26
2017-11-16T11:25:36.134Z,101617.09
2017-11-16T11:28:03.573Z,101611.05
2017-11-16T11:30:30.973Z,101609.03
2017-11-16T11:32:58.380Z,101606.70
2017-11-16T11:35:25.769Z,101606.59
2017-11-16T11:37:53.171Z,101606.13
2017-11-16T11:40:20.603Z,101602.16
2017-11-16T11:42:48.008Z,101599.63
2017-11-16T11:45:15.411Z,101595.20
2017-11-16T11:47:42.815Z,101596.41
2017-11-16T11:50:10.212Z,101598.20
2017-11-16T11:52:37.695Z,101598.52
2017-11-16T11:55:05.091Z,101592.67
2017-11-16T11:57:32.600Z,101590.39
2017-11-16T12:00:00.018Z,101594.03
2017-11-16T12:02:27.407Z,101585.45
2017-11-16T12:04:54.816Z,101586.00
2017-11-16T12:07:22.208Z,101586.91
2017-11-16T12:09:49.609Z,101581.86
2017-11-16T12:12:17.027Z,101585.50
2017-11-16T12:14:44.431Z,101584.29
2017-11-16T12:17:11.820Z,101584.30
2017-11-16T12:19:39.214Z,101580.55
2017-11-16T12:22:06.616Z,101577.00
2017-11-16T12:24:34.183Z,101573.13
2017-11-16T12:27:01.652Z,101577.27
2017-11-16T12:29:29.064Z,101568.86
2017-11-16T12:31:56.476Z,101569.94
2017-11-16T12:34:23.871Z,101573.27
2017-11-16T12:36:51.274Z,101572.31
2017-11-16T12:39:18.748Z,101569.65
2017-11-16T12:41:46.139Z,101566.23
2017-11-16T12:44:13.560Z,101571.14
2017-11-16T12:46:41.030Z,101575.42
2017-11-16T12:49:08.419Z,101566.97
2017-11-16T12:51:35.827Z,101563.31
2017-11-16T12:54:03.228Z,101554.43
2017-11-16T12:56:30.628Z,101558.55
2017-11-16T12:58:58.087Z,101558.51
2017-11-16T13:01:25.552Z,101554.95
2017-11-16T13:03:52.951Z,101548.63
2017-11-16T13:06:20.367Z,101542.78
2017-11-16T13:08:47.757Z,101544.84
2017-11-16T13:11:15.160Z,101543.11
2017-11-16T13:13:42.555Z,101542.83
2017-11-16T13:16:09.951Z,101540.50
2017-11-16T13:18:37.356Z,101536.16
2017-11-16T13:21:04.802Z,101539.15
2017-11-16T13:23:32.189Z,101535.55
2017-11-16T13:25:59.600Z,101530.59
2017-11-16T13:28:27.051Z,101532.61
2017-11-16T13:30:54.503Z,101526.33
2017-11-16T13:33:21.891Z,101524.16
2017-11-16T13:35:49.299Z,101519.81
2017-11-16T13:38:16.776Z,101513.88
2017-11-16T13:40:44.176Z,101515.43
2017-11-16T13:43:11.576Z,101508.13
2017-11-16T13:45:39.052Z,101500.57
2017-11-16T13:48:06.457Z,101499.13
2017-11-16T13:50:33.853Z,101491.40
2017-11-16T13:53:01.253Z,101496.59
2017-11-16T13:55:28.658Z,101492.42
2017-11-16T13:57:56.052Z,101494.09
2017-11-16T14:00:23.448Z,101492.62
2017-11-16T14:02:50.856Z,101493.08
2017-11-16T14:05:18.276Z,101489.72
2017-11-16T14:07:45.748Z,101492.77
2017-11-16T14:10:13.204Z,101491.27
2017-11-16T14:12:40.605Z,101488.75
2017-11-16T14:15:08.022Z,101479.16
2017-11-16T14:17:35.416Z,101478.72
2017-11-16T14:20:02.812Z,101478.51
2017-11-16T14:22:30.295Z,101475.66
2017-11-16T14:24:57.676Z,101472.41
2017-11-16T14:27:25.082Z,101468.61
2017-11-16T14:29:52.495Z,101475.58
2017-11-16T14:32:19.959Z,101477.16
2017-11-16T14:34:47.357Z,101478.86
2017-11-16T14:37:14.756Z,101475.72
2017-11-16T14:39:42.152Z,101470.28
2017-11-16T14:42:09.557Z,101465.34
2017-11-16T14:44:36.948Z,101465.65
2017-11-16T14:47:04.359Z,101465.89
2017-11-16T14:49:31.739Z,101464.34
2017-11-16T14:51:59.172Z,101469.03
2017-11-16T14:54:26.570Z,101471.20
2017-11-16T14:56:54.001Z,101469.65
2017-11-16T14:59:21.403Z,101473.91
2017-11-16T15:01:48.821Z,101479.47
2017-11-16T15:04:16.215Z,101477.58
2017-11-16T15:06:43.643Z,101472.28
2017-11-16T15:09:11.108Z,101468.58
2017-11-16T15:11:38.503Z,101473.78
2017-11-16T15:14:05.900Z,101462.42
2017-11-16T15:16:33.291Z,101454.79
2017-11-16T15:19:00.696Z,101455.25
2017-11-16T15:21:28.088Z,101456.14
2017-11-16T15:23:55.493Z,101451.69
2017-11-16T15:26:22.890Z,101458.78
2017-11-16T15:28:50.294Z,101455.98
2017-11-16T15:31:17.688Z,101465.03
2017-11-16T15:33:45.105Z,101461.16
2017-11-16T15:36:12.496Z,101453.11
2017-11-16T15:38:39.957Z,101457.63
2017-11-16T15:41:07.349Z,101455.48
2017-11-16T15:43:34.785Z,101447.95
2017-11-16T15:46:02.232Z,101448.14
2017-11-16T15:48:29.664Z,101439.59
2017-11-16T15:50:57.024Z,101440.92
2017-11-16T15:53:24.493Z,101441.28
2017-11-16T15:55:51.899Z,101442.80
2017-11-16T15:58:19.285Z,101444.66
2017-11-16T16:00:46.759Z,101460.77
2017-11-16T16:03:14.148Z,101458.34
2017-11-16T16:05:41.572Z,101466.05
2017-11-16T16:08:08.980Z,101464.19
2017-11-16T16:10:36.377Z,101456.54
2017-11-16T16:13:03.772Z,101455.41
2017-11-16T16:16:58.330Z,101458.83
2017-11-16T16:19:25.724Z,101452.83
2017-11-16T16:21:53.200Z,101456.42
2017-11-16T16:24:20.589Z,101458.11
2017-11-16T16:26:47.984Z,101456.95
2017-11-16T16:29:15.488Z,101454.03
2017-11-16T16:31:42.924Z,101450.76
2017-11-16T16:34:10.316Z,101451.44
2017-11-16T16:36:37.711Z,101443.08
2017-11-16T16:39:05.115Z,101438.06
2017-11-16T16:41:32.511Z,101443.83
2017-11-16T16:43:59.900Z,101443.69
2017-11-16T16:46:27.306Z,101444.70
2017-11-16T16:48:54.716Z,101444.34
2017-11-16T16:51:22.108Z,101448.78
2017-11-16T16:53:49.509Z,101458.98
2017-11-16T16:56:16.901Z,101456.80
2017-11-16T16:58:44.289Z,101446.91
2017-11-16T17:01:11.692Z,101441.16
2017-11-16T17:03:39.084Z,101435.20
2017-11-16T17:06:06.479Z,101444.85
2017-11-16T17:08:33.864Z,101443.08
2017-11-16T17:11:01.264Z,101443.75
2017-11-16T17:13:28.693Z,101444.29
2017-11-16T17:15:56.068Z,101449.31
2017-11-16T17:18:23.468Z,101437.91
2017-11-16T17:20:50.877Z,101443.39
2017-11-16T17:23:18.267Z,101441.91
2017-11-16T17:25:45.661Z,101445.38
2017-11-16T17:28:13.057Z,101440.52
2017-11-16T17:30:40.461Z,101429.08
2017-11-16T17:33:07.856Z,101422.64
2017-11-16T17:35:35.239Z,101431.55
2017-11-16T17:38:02.640Z,101426.17
2017-11-16T17:40:30.037Z,101426.52
2017-11-16T17:42:57.423Z,101433.11
2017-11-16T17:45:24.818Z,101439.41
2017-11-16T17:47:52.222Z,101433.98
2017-11-16T17:50:19.615Z,101431.72
2017-11-16T17:52:47.016Z,101430.13
2017-11-16T17:55:14.408Z,101429.28
2017-11-16T17:57:41.808Z,101432.05
2017-11-16T18:00:09.203Z,101426.59
2017-11-16T18:02:36.613Z,101427.55
2017-11-16T18:05:04.016Z,101425.48
2017-11-16T18:07:31.412Z,101429.32
2017-11-16T18:09:58.803Z,101432.34
2017-11-16T18:12:26.199Z,101433.02
2017-11-16T18:14:53.599Z,101438.03
2017-11-16T18:17:20.996Z,101439.40
2017-11-16T18:19:48.388Z,101437.03
2017-11-16T18:22:15.781Z,101429.41
2017-11-16T18:24:43.177Z,101438.34
2017-11-16T18:27:10.583Z,101438.28
2017-11-16T18:29:37.992Z,101436.91
2017-11-16T18:32:05.385Z,101440.82
2017-11-16T18:34:32.816Z,101436.69
2017-11-16T18:37:00.209Z,101444.23
2017-11-16T18:39:27.653Z,101441.30
2017-11-16T18:41:55.105Z,101444.91
2017-11-16T18:44:22.517Z,101444.03
2017-11-16T18:46:49.917Z,101440.75
2017-11-16T18:49:17.315Z,101444.23
2017-11-16T18:51:44.707Z,101443.72
2017-11-16T18:54:12.110Z,101443.27
2017-11-16T18:56:39.498Z,101440.56
2017-11-16T18:59:06.902Z,101432.39
2017-11-16T19:01:34.296Z,101434.61
2017-11-16T19:04:01.698Z,101430.66
2017-11-16T19:06:29.084Z,101436.03
2017-11-16T19:08:56.486Z,101439.26
2017-11-16T19:11:23.880Z,101448.25
2017-11-16T19:13:51.285Z,101447.09
2017-11-16T19:16:18.787Z,101444.34
2017-11-16T19:18:46.183Z,101444.48
2017-11-16T19:21:13.581Z,101450.31
2017-11-16T19:23:40.981Z,101450.19
2017-11-16T19:26:08.716Z,101442.60
2017-11-16T19:28:36.127Z,101450.63
2017-11-16T19:31:03.517Z,101449.58
2017-11-16T19:33:30.935Z,101441.72
2017-11-16T19:35:58.340Z,101441.75
2017-11-16T19:38:25.742Z,101441.44
2017-11-16T19:40:53.129Z,101439.02
2017-11-16T19:43:20.535Z,101441.23
2017-11-16T19:45:47.958Z,101441.95
2017-11-16T19:48:16.119Z,101433.94
2017-11-16T19:50:43.804Z,101444.73
2017-11-16T19:53:11.187Z,101457.53
2017-11-16T19:55:38.705Z,101455.70
2017-11-16T19:58:06.196Z,101457.83
2017-11-16T20:00:33.620Z,101458.95
2017-11-16T20:03:01.009Z,101453.16
2017-11-16T20:05:28.418Z,101454.97
2017-11-16T20:07:55.809Z,101450.57
2017-11-16T20:10:23.213Z,101457.55
2017-11-16T20:12:50.612Z,101452.48
2017-11-16T20:15:18.009Z,101461.86
2017-11-16T20:17:45.405Z,101459.88
2017-11-16T20:20:12.820Z,101455.66
2017-11-16T20:22:40.234Z,101466.22
2017-11-16T20:25:07.642Z,101463.36
2017-11-16T20:27:35.040Z,101459.88
2017-11-16T20:30:02.457Z,101464.26
2017-11-16T20:32:29.964Z,101463.61
2017-11-16T20:34:57.367Z,101463.26
2017-11-16T20:37:30.449Z,101452.84
2017-11-16T20:40:02.821Z,101459.69
2017-11-16T20:45:51.112Z,101460.03
2017-11-16T20:48:24.278Z,101458.65
2017-11-16T20:54:14.378Z,101467.14
2017-11-16T20:56:41.775Z,101464.98
2017-11-16T20:59:09.172Z,101474.44
2017-11-16T21:01:36.693Z,101479.84
2017-11-16T21:04:04.117Z,101476.88
2017-11-16T21:06:31.547Z,101474.02
2017-11-16T21:08:58.939Z,101474.67
2017-11-16T21:11:26.381Z,101468.73
2017-11-16T21:13:53.836Z,101468.22
2017-11-16T21:16:21.316Z,101467.52
2017-11-16T21:18:48.702Z,101465.69
2017-11-16T21:21:16.105Z,101468.91
2017-11-16T21:23:43.499Z,101466.33
2017-11-16T21:26:10.898Z,101466.37
2017-11-16T21:28:38.301Z,101460.60
2017-11-16T21:31:05.723Z,101461.23
2017-11-16T21:33:33.123Z,101468.69
2017-11-16T21:36:00.538Z,101463.94
2017-11-16T21:38:27.939Z,101466.66
2017-11-16T21:40:55.329Z,101463.64
2017-11-16T21:43:22.741Z,101461.83
2017-11-16T21:45:50.128Z,101465.41
2017-11-16T21:48:17.537Z,101467.59
2017-11-16T21:50:44.947Z,101464.83
2017-11-16T21:53:12.433Z,101447.31
2017-11-16T21:55:39.824Z,101442.88
2017-11-16T21:58:07.374Z,101447.84
2017-11-16T22:00:34.795Z,101444.62
2017-11-16T22:03:02.252Z,101449.98
2017-11-16T22:05:29.651Z,101445.23
2017-11-16T22:07:57.143Z,101448.30
2017-11-16T22:10:24.544Z,101451.73
2017-11-16T22:12:51.970Z,101456.19
2017-11-16T22:15:19.372Z,101449.42
2017-11-16T22:17:46.771Z,101445.92
2017-11-16T22:20:14.165Z,101446.25
2017-11-16T22:22:41.610Z,101451.63
2017-11-16T22:25:09.003Z,101446.56
2017-11-16T22:27:36.507Z,101442.02
2017-11-16T22:30:03.911Z,101451.20
2017-11-16T22:32:31.320Z,101450.63
2017-11-16T22:34:58.780Z,101445.50
2017-11-16T22:37:26.236Z,101453.75
2017-11-16T22:39:53.640Z,101457.83
2017-11-16T22:42:21.040Z,101454.06
2017-11-16T22:44:48.499Z,101454.80
2017-11-16T22:47:15.948Z,101465.15
2017-11-16T22:49:43.416Z,101463.12
2017-11-16T22:52:10.829Z,101471.22
2017-11-16T22:54:38.337Z,101466.30
2017-11-16T22:57:05.723Z,101466.56
2017-11-16T22:59:33.127Z,101474.25
2017-11-16T23:02:00.538Z,101483.50
2017-11-16T23:04:27.964Z,101477.53
2017-11-16T23:06:55.348Z,101482.13
2017-11-16T23:09:22.743Z,101480.08
2017-11-16T23:11:50.153Z,101482.20
2017-11-16T23:14:17.543Z,101484.64
2017-11-16T23:16:44.940Z,101476.78
2017-11-16T23:19:12.344Z,101477.30
2017-11-16T23:21:39.836Z,101489.84
2017-11-16T23:24:07.223Z,101486.95
2017-11-16T23:26:34.632Z,101497.50
2017-11-16T23:29:02.042Z,101493.95
2017-11-16T23:31:29.439Z,101491.50
2017-11-16T23:33:56.832Z,101486.60
2017-11-16T23:36:24.244Z,101491.67
2017-11-16T23:38:51.727Z,101492.95
2017-11-16T23:41:19.131Z,101496.80
2017-11-16T23:43:46.584Z,101497.89
2017-11-16T23:46:14.077Z,101500.42
2017-11-16T23:48:41.508Z,101500.61
2017-11-16T23:51:08.916Z,101505.40
2017-11-16T23:53:36.415Z,101509.95
2017-11-16T23:56:03.807Z,101507.63
2017-11-16T23:58:31.223Z,101510.79
